Time;durP1;ratioP1;P1;durP2;ratioP2;P2;SDS_P1;SDS_P2;PMS_P1;PMS_P2;Temp;Humidity;BMP_temperature;BMP_pressure;BME280_temperature;BME280_humidity;BME280_pressure;Samples;Min_cycle;Max_cycle;Signal;HPM_P1;HPM_P2
2022/01/05 00:00:19;;;;;;;;;;;;;;;17.51;50.95;100157.22;5041922;28;20032;-40
2022/01/05 00:02:46;;;;;;;;;;;;;;;17.50;51.33;100161.75;5041911;28;20000;-41
2022/01/05 00:05:12;;;;;;;;;;;;;;;17.49;50.95;100164.59;5042865;28;19929;-40
2022/01/05 00:07:39;;;;;;;;;;;;;;;17.49;51.27;100164.59;5045334;28;20295;-40
2022/01/05 00:10:06;;;;;;;;;;;;;;;17.48;50.95;100163.75;5043746;28;20152;-42
2022/01/05 00:12:32;;;;;;;;;;;;;;;17.46;51.36;100162.25;5042755;28;19931;-40
2022/01/05 00:14:58;;;;;;;;;;;;;;;17.46;51.58;100162.25;5044434;28;20061;-40
2022/01/05 00:17:25;;;;;;;;;;;;;;;17.46;51.33;100168.44;5048808;28;19925;-40
2022/01/05 00:19:51;;;;;;;;;;;;;;;17.44;51.24;100162.41;5046797;28;19924;-40
2022/01/05 00:22:18;;;;;;;;;;;;;;;17.44;51.50;100164.25;5045475;28;20445;-40
2022/01/05 00:24:44;;;;;;;;;;;;;;;17.42;51.47;100163.59;5044782;28;19925;-40
2022/01/05 00:27:10;;;;;;;;;;;;;;;17.42;51.31;100174.31;5046700;28;19939;-40
2022/01/05 00:29:37;;;;;;;;;;;;;;;17.41;51.60;100164.59;5044209;28;20014;-40
2022/01/05 00:32:04;;;;;;;;;;;;;;;17.39;51.63;100164.75;5049031;28;19933;-40
2022/01/05 00:34:31;;;;;;;;;;;;;;;17.39;51.86;100166.59;5047633;28;19940;-40
2022/01/05 00:36:57;;;;;;;;;;;;;;;17.39;51.36;100169.25;5044292;28;19935;-40
2022/01/05 00:39:23;;;;;;;;;;;;;;;17.38;51.89;100171.09;5047808;28;20035;-40
2022/01/05 00:41:50;;;;;;;;;;;;;;;17.38;51.61;100172.97;5049497;28;19936;-40
2022/01/05 00:44:16;;;;;;;;;;;;;;;17.39;51.98;100177.31;5044916;28;19936;-40
2022/01/05 00:46:42;;;;;;;;;;;;;;;17.37;51.67;100176.66;5045054;28;21072;-40
2022/01/05 00:49:09;;;;;;;;;;;;;;;17.36;51.40;100167.75;5047902;28;19933;-40
2022/01/05 00:51:35;;;;;;;;;;;;;;;17.35;51.84;100163.41;5046934;28;19924;-40
2022/01/05 00:54:02;;;;;;;;;;;;;;;17.34;51.78;100166.25;5046517;28;19928;-40
2022/01/05 00:56:28;;;;;;;;;;;;;;;17.35;50.96;100175.97;5049185;28;19935;-40
2022/01/05 00:58:54;;;;;;;;;;;;;;;17.33;51.62;100172.63;5044109;28;19925;-40
2022/01/05 01:01:21;;;;;;;;;;;;;;;17.31;51.51;100175.44;5044434;28;19978;-40
2022/01/05 01:03:48;;;;;;;;;;;;;;;17.28;51.42;100173.94;5046972;28;19940;-40
2022/01/05 01:06:15;;;;;;;;;;;;;;;17.28;51.50;100175.78;5049497;28;19964;-41
2022/01/05 01:08:41;;;;;;;;;;;;;;;17.27;51.73;100179.47;5042893;28;19928;-39
2022/01/05 01:11:08;;;;;;;;;;;;;;;17.26;51.47;100175.13;5044100;28;19929;-39
2022/01/05 01:13:34;;;;;;;;;;;;;;;17.25;51.77;100176.97;5046901;28;20317;-41
2022/01/05 01:16:00;;;;;;;;;;;;;;;17.25;51.49;100181.47;5045150;28;19931;-41
2022/01/05 01:18:27;;;;;;;;;;;;;;;17.24;51.44;100183.28;5046405;28;20541;-41
2022/01/05 01:20:53;;;;;;;;;;;;;;;17.23;51.85;100181.63;5043923;28;19925;-40
2022/01/05 01:23:22;;;;;;;;;;;;;;;17.23;51.46;100184.31;5046791;28;20106;-40
2022/01/05 01:25:49;;;;;;;;;;;;;;;17.22;51.31;100179.97;5043375;28;19939;-40
2022/01/05 01:28:16;;;;;;;;;;;;;;;17.22;51.82;100187.16;5045428;28;20344;-40
2022/01/05 01:30:42;;;;;;;;;;;;;;;17.20;51.88;100187.31;5047093;28;19929;-40
2022/01/05 01:33:09;;;;;;;;;;;;;;;17.18;51.36;100181.28;5045444;28;20354;-40
2022/01/05 01:35:35;;;;;;;;;;;;;;;17.19;51.19;100190.16;5040964;28;19979;-40
2022/01/05 01:38:02;;;;;;;;;;;;;;;17.18;51.62;100188.50;5047036;28;20104;-40
2022/01/05 01:40:28;;;;;;;;;;;;;;;17.18;51.67;100183.13;5042638;28;20548;-40
2022/01/05 01:42:55;;;;;;;;;;;;;;;17.16;51.18;100182.44;5042311;28;20338;-40
2022/01/05 01:45:21;;;;;;;;;;;;;;;17.15;51.82;100186.97;5046981;28;19929;-41
2022/01/05 01:47:48;;;;;;;;;;;;;;;17.15;51.15;100188.81;5046604;28;19929;-40
2022/01/05 01:50:14;;;;;;;;;;;;;;;17.14;51.20;100195.19;5045366;28;19925;-40
2022/01/05 01:52:41;;;;;;;;;;;;;;;17.13;51.57;100193.50;5045387;28;19925;-40
2022/01/05 01:55:08;;;;;;;;;;;;;;;17.12;51.26;100195.31;5045962;28;19929;-40
2022/01/05 01:57:35;;;;;;;;;;;;;;;17.11;50.88;100190.97;5045804;28;19934;-40
2022/01/05 02:00:03;;;;;;;;;;;;;;;17.10;51.32;100197.34;5042782;28;19935;-44
2022/01/05 02:02:30;;;;;;;;;;;;;;;17.08;51.67;100199.31;5049691;28;20673;-40
2022/01/05 02:04:56;;;;;;;;;;;;;;;17.10;51.76;100196.50;5041827;28;19929;-40
2022/01/05 02:07:23;;;;;;;;;;;;;;;17.09;51.38;100200.19;5045577;28;19924;-40
2022/01/05 02:09:49;;;;;;;;;;;;;;;17.07;51.49;100197.66;5047326;28;19935;-40
2022/01/05 02:12:16;;;;;;;;;;;;;;;17.08;51.81;100190.47;5045990;28;19929;-40
2022/01/05 02:14:42;;;;;;;;;;;;;;;17.07;51.52;100197.66;5042088;28;20232;-40
2022/01/05 02:17:18;;;;;;;;;;;;;;;17.07;51.77;100203.00;5043289;28;19939;-40
2022/01/05 02:19:44;;;;;;;;;;;;;;;17.06;51.43;100205.88;5048410;28;19931;-39
2022/01/05 02:22:10;;;;;;;;;;;;;;;17.05;51.82;100204.19;5042847;28;19939;-40
2022/01/05 02:24:37;;;;;;;;;;;;;;;17.04;51.79;100197.97;5042569;28;19929;-40
2022/01/05 02:27:04;;;;;;;;;;;;;;;17.03;51.37;100196.31;5044575;28;19928;-40
2022/01/05 02:29:30;;;;;;;;;;;;;;;17.03;51.52;100198.97;5040640;28;19929;-40
2022/01/05 02:32:01;;;;;;;;;;;;;;;17.01;51.79;100198.31;5043513;28;19955;-40
2022/01/05 02:34:27;;;;;;;;;;;;;;;17.01;51.53;100201.00;5045171;28;19952;-40
2022/01/05 02:36:54;;;;;;;;;;;;;;;17.00;51.32;100200.16;5043434;28;19932;-40
2022/01/05 02:39:20;;;;;;;;;;;;;;;16.99;51.39;100205.66;5042146;28;19925;-40
2022/01/05 02:41:46;;;;;;;;;;;;;;;16.98;51.43;100210.19;5042055;28;19933;-40
2022/01/05 02:44:13;;;;;;;;;;;;;;;16.99;51.77;100211.03;5047226;28;19940;-40
2022/01/05 02:46:39;;;;;;;;;;;;;;;16.97;51.30;100199.66;5041265;28;19935;-40
2022/01/05 02:49:05;;;;;;;;;;;;;;;16.97;51.10;100207.69;5045824;28;19925;-40
2022/01/05 02:51:32;;;;;;;;;;;;;;;16.95;51.42;100198.97;5044994;28;20308;-40
2022/01/05 02:53:58;;;;;;;;;;;;;;;16.96;51.69;100203.31;5041745;28;19943;-40
2022/01/05 02:56:25;;;;;;;;;;;;;;;16.95;51.35;100201.63;5043622;28;19925;-40
2022/01/05 02:58:51;;;;;;;;;;;;;;;16.94;51.33;100206.16;5044590;28;19950;-40
2022/01/05 03:01:17;;;;;;;;;;;;;;;16.94;51.87;100200.81;5042072;28;19929;-40
2022/01/05 03:03:44;;;;;;;;;;;;;;;16.94;51.04;100205.31;5041055;28;19932;-40
2022/01/05 03:06:11;;;;;;;;;;;;;;;16.92;51.44;100204.63;5043979;28;20193;-40
2022/01/05 03:08:37;;;;;;;;;;;;;;;16.92;51.83;100213.50;5043588;28;19925;-40
2022/01/05 03:11:04;;;;;;;;;;;;;;;16.92;51.77;100215.34;5042568;28;19933;-40
2022/01/05 03:13:30;;;;;;;;;;;;;;;16.91;51.97;100217.19;5041976;28;19929;-41
2022/01/05 03:15:56;;;;;;;;;;;;;;;16.90;51.44;100220.03;5042909;28;19925;-40
2022/01/05 03:18:23;;;;;;;;;;;;;;;16.91;51.46;100213.66;5044089;28;20309;-40
2022/01/05 03:20:49;;;;;;;;;;;;;;;16.89;51.33;100221.88;5043387;28;19928;-41
2022/01/05 03:23:16;;;;;;;;;;;;;;;16.89;51.40;100221.03;5044181;28;20374;-40
2022/01/05 03:25:43;;;;;;;;;;;;;;;16.88;51.19;100222.84;5044693;28;19933;-40
2022/01/05 03:28:09;;;;;;;;;;;;;;;16.87;51.89;100226.53;5042122;28;19924;-40
2022/01/05 03:30:35;;;;;;;;;;;;;;;16.87;51.73;100229.22;5044860;28;20042;-40
2022/01/05 03:33:11;;;;;;;;;;;;;;;16.88;51.45;100230.03;5045663;28;19935;-41
2022/01/05 03:35:39;;;;;;;;;;;;;;;16.86;51.43;100235.56;5044627;28;19933;-40
2022/01/05 03:38:05;;;;;;;;;;;;;;;16.86;51.06;100229.38;5043265;28;19940;-40
2022/01/05 03:40:34;;;;;;;;;;;;;;;16.85;50.95;100228.53;5045744;28;19961;-40
2022/01/05 03:43:01;;;;;;;;;;;;;;;16.85;51.04;100219.69;5044311;28;19932;-40
2022/01/05 03:45:27;;;;;;;;;;;;;;;16.83;51.05;100221.66;5042566;28;19925;-40
2022/01/05 03:47:54;;;;;;;;;;;;;;;16.84;51.41;100223.34;5042289;28;20019;-41
2022/01/05 03:50:20;;;;;;;;;;;;;;;16.81;51.19;100213.81;5046929;28;19947;-40
2022/01/05 03:52:47;;;;;;;;;;;;;;;16.82;51.22;100214.66;5047195;28;19932;-40
2022/01/05 03:55:13;;;;;;;;;;;;;;;16.80;51.27;100216.63;5046690;28;19925;-40
2022/01/05 03:57:39;;;;;;;;;;;;;;;16.78;51.70;100214.97;5044776;28;19931;-40
2022/01/05 04:00:06;;;;;;;;;;;;;;;16.77;51.70;100215.97;5047589;28;19932;-40
2022/01/05 04:02:33;;;;;;;;;;;;;;;16.79;51.92;100215.78;5046337;28;19933;-39
2022/01/05 04:04:59;;;;;;;;;;;;;;;16.76;50.98;100222.31;5046439;28;19937;-40
2022/01/05 04:07:25;;;;;;;;;;;;;;;16.78;51.88;100228.34;5047569;28;19932;-40
2022/01/05 04:09:52;;;;;;;;;;;;;;;16.78;51.27;100231.00;5046968;28;20230;-40
2022/01/05 04:12:18;;;;;;;;;;;;;;;16.77;52.20;100233.88;5047365;28;20252;-40
2022/01/05 04:14:45;;;;;;;;;;;;;;;16.77;51.64;100237.38;5047578;28;20355;-40
2022/01/05 04:17:11;;;;;;;;;;;;;;;16.76;52.15;100237.50;5048897;28;19931;-40
2022/01/05 04:19:37;;;;;;;;;;;;;;;16.76;51.94;100229.50;5047722;28;20253;-40
2022/01/05 04:22:04;;;;;;;;;;;;;;;16.75;52.04;100225.97;5048254;28;19929;-40
2022/01/05 04:24:31;;;;;;;;;;;;;;;16.76;51.71;100232.16;5045638;28;20320;-40
2022/01/05 04:26:57;;;;;;;;;;;;;;;16.78;51.57;100236.38;5049083;28;20272;-38
2022/01/05 04:29:23;;;;;;;;;;;;;;;16.86;51.66;100237.41;5046618;28;19929;-39
2022/01/05 04:31:50;;;;;;;;;;;;;;;16.92;51.30;100231.41;5045342;28;20667;-40
2022/01/05 04:34:18;;;;;;;;;;;;;;;17.00;51.95;100228.75;5043280;28;19948;-39
2022/01/05 04:37:05;;;;;;;;;;;;;;;17.11;51.57;100230.31;5046320;28;19929;-39
2022/01/05 04:39:32;;;;;;;;;;;;;;;17.20;51.54;100232.00;5046273;28;20235;-40
2022/01/05 04:41:58;;;;;;;;;;;;;;;17.30;51.21;100234.56;5044895;28;20411;-40
2022/01/05 04:44:24;;;;;;;;;;;;;;;17.40;51.00;100249.44;5045043;28;19933;-39
2022/01/05 04:46:51;;;;;;;;;;;;;;;17.49;51.17;100247.66;5047565;28;19936;-40
2022/01/05 04:49:17;;;;;;;;;;;;;;;17.57;50.95;100247.66;5046977;28;19939;-40
2022/01/05 04:51:44;;;;;;;;;;;;;;;17.65;50.84;100242.31;5044381;28;19925;-40
2022/01/05 04:54:10;;;;;;;;;;;;;;;17.73;50.89;100250.38;5047298;28;19935;-41
2022/01/05 04:56:36;;;;;;;;;;;;;;;17.81;50.46;100243.34;5048289;28;20228;-40
2022/01/05 04:59:03;;;;;;;;;;;;;;;17.87;50.72;100248.06;5046111;28;20040;-41
2022/01/05 05:01:30;;;;;;;;;;;;;;;17.94;50.50;100241.03;5046784;28;19925;-40
2022/01/05 05:03:56;;;;;;;;;;;;;;;17.99;50.65;100246.72;5046402;28;19925;-40
2022/01/05 05:06:23;;;;;;;;;;;;;;;18.05;50.23;100243.38;5046226;28;19928;-40
2022/01/05 05:08:50;;;;;;;;;;;;;;;18.11;50.49;100252.56;5046453;28;19976;-40
2022/01/05 05:11:16;;;;;;;;;;;;;;;18.15;50.25;100257.44;5047197;28;19929;-40
2022/01/05 05:13:42;;;;;;;;;;;;;;;18.19;50.46;100249.88;5045212;28;20491;-40
2022/01/05 05:16:09;;;;;;;;;;;;;;;18.21;49.97;100261.28;5043469;28;19943;-40
2022/01/05 05:18:35;;;;;;;;;;;;;;;18.22;50.33;100253.06;5048304;28;19928;-40
2022/01/05 05:21:02;;;;;;;;;;;;;;;18.24;49.82;100248.34;5047696;28;20477;-40
2022/01/05 05:23:28;;;;;;;;;;;;;;;18.24;49.95;100251.03;5045232;28;19928;-41
2022/01/05 05:25:54;;;;;;;;;;;;;;;18.24;50.15;100266.31;5042478;28;20007;-41
2022/01/05 05:28:21;;;;;;;;;;;;;;;18.23;49.99;100268.16;5044276;28;19926;-41
2022/01/05 05:30:47;;;;;;;;;;;;;;;18.21;50.01;100259.44;5044906;28;19933;-41
2022/01/05 05:33:14;;;;;;;;;;;;;;;18.18;49.93;100262.47;5044834;28;19955;-41
2022/01/05 05:35:41;;;;;;;;;;;;;;;18.16;49.67;100260.94;5044632;28;20342;-40
2022/01/05 05:38:08;;;;;;;;;;;;;;;18.13;49.78;100256.78;5045239;28;19964;-41
2022/01/05 05:40:38;;;;;;;;;;;;;;;18.08;49.73;100261.78;5043393;28;19925;-41
2022/01/05 05:43:04;;;;;;;;;;;;;;;18.06;49.75;100263.81;5046742;28;19929;-40
2022/01/05 05:45:30;;;;;;;;;;;;;;;18.02;50.00;100269.69;5044459;28;19941;-40
2022/01/05 05:47:57;;;;;;;;;;;;;;;17.98;49.99;100266.50;5045652;28;19937;-40
2022/01/05 05:50:24;;;;;;;;;;;;;;;17.94;50.19;100281.25;5043772;28;19933;-40
2022/01/05 05:52:50;;;;;;;;;;;;;;;17.90;49.90;100264.66;5045420;28;19972;-40
2022/01/05 05:55:17;;;;;;;;;;;;;;;17.87;50.11;100270.34;5041708;28;20542;-39
2022/01/05 05:57:43;;;;;;;;;;;;;;;17.84;49.98;100273.34;5044951;28;20321;-40
2022/01/05 06:00:10;;;;;;;;;;;;;;;17.80;50.12;100272.00;5042604;28;19925;-40
2022/01/05 06:02:37;;;;;;;;;;;;;;;17.78;50.09;100271.34;5046140;28;20043;-39
2022/01/05 06:05:03;;;;;;;;;;;;;;;17.75;50.53;100275.19;5042222;28;20007;-39
2022/01/05 06:07:30;;;;;;;;;;;;;;;17.72;50.08;100269.28;5048517;28;19924;-39
2022/01/05 06:09:58;;;;;;;;;;;;;;;17.70;50.31;100276.66;5043069;28;20028;-40
2022/01/05 06:12:25;;;;;;;;;;;;;;;17.66;50.33;100273.47;5043996;28;19924;-39
2022/01/05 06:14:52;;;;;;;;;;;;;;;17.64;50.32;100270.09;5045926;28;20200;-39
2022/01/05 06:17:18;;;;;;;;;;;;;;;17.62;50.69;100272.13;5041284;28;20240;-39
2022/01/05 06:19:44;;;;;;;;;;;;;;;17.60;50.59;100267.91;5044329;28;19956;-39
2022/01/05 06:22:11;;;;;;;;;;;;;;;17.56;50.43;100262.03;5044923;28;19943;-40
2022/01/05 06:24:39;;;;;;;;;;;;;;;17.55;50.51;100270.25;5044560;28;20023;-39
2022/01/05 06:27:09;;;;;;;;;;;;;;;17.52;50.46;100282.97;5041149;28;19945;-39
2022/01/05 06:29:36;;;;;;;;;;;;;;;17.50;50.73;100273.44;5045288;28;19929;-39
2022/01/05 06:32:03;;;;;;;;;;;;;;;17.48;50.82;100286.16;5043686;28;19929;-39
2022/01/05 06:34:30;;;;;;;;;;;;;;;17.47;50.85;100287.16;5047813;28;19939;-39
2022/01/05 06:36:57;;;;;;;;;;;;;;;17.44;50.69;100290.16;5045859;28;19933;-40
2022/01/05 06:39:23;;;;;;;;;;;;;;;17.42;50.72;100290.31;5047543;28;19943;-40
2022/01/05 06:41:50;;;;;;;;;;;;;;;17.41;50.96;100293.19;5042128;28;19986;-40
2022/01/05 06:44:16;;;;;;;;;;;;;;;17.38;50.78;100302.38;5044225;28;20028;-40
2022/01/05 06:46:42;;;;;;;;;;;;;;;17.38;51.01;100298.84;5041508;28;20239;-40
2022/01/05 06:49:09;;;;;;;;;;;;;;;17.35;51.02;100294.66;5045956;28;19928;-40
2022/01/05 06:51:35;;;;;;;;;;;;;;;17.34;51.00;100298.34;5042120;28;19933;-40
2022/01/05 06:54:02;;;;;;;;;;;;;;;17.34;51.25;100305.53;5044945;28;20027;-40
2022/01/05 06:56:28;;;;;;;;;;;;;;;17.32;50.82;100302.16;5032154;28;19929;-39
2022/01/05 06:58:54;;;;;;;;;;;;;;;17.30;51.09;100304.19;5033414;28;19925;-40
2022/01/05 07:01:21;;;;;;;;;;;;;;;17.28;51.03;100302.50;5033715;28;19928;-40
2022/01/05 07:03:47;;;;;;;;;;;;;;;17.26;51.00;100299.16;5033800;28;19969;-40
2022/01/05 07:06:14;;;;;;;;;;;;;;;17.25;50.87;100308.19;5030381;28;20181;-39
2022/01/05 07:08:40;;;;;;;;;;;;;;;17.24;51.13;100305.66;5031285;28;20024;-39
2022/01/05 07:11:06;;;;;;;;;;;;;;;17.22;51.44;100296.97;5033423;28;19935;-39
2022/01/05 07:13:33;;;;;;;;;;;;;;;17.22;51.38;100303.16;5030084;28;20377;-39
2022/01/05 07:15:59;;;;;;;;;;;;;;;17.20;51.01;100305.13;5029972;28;20345;-39
2022/01/05 07:18:26;;;;;;;;;;;;;;;17.19;51.08;100310.66;5031813;28;19929;-40
2022/01/05 07:20:52;;;;;;;;;;;;;;;17.17;51.30;100321.56;5038359;28;19932;-39
2022/01/05 07:23:18;;;;;;;;;;;;;;;17.16;51.54;100319.84;5037536;28;19939;-39
2022/01/05 07:25:45;;;;;;;;;;;;;;;17.16;51.36;100319.00;5039296;28;19936;-41
2022/01/05 07:28:12;;;;;;;;;;;;;;;17.16;50.84;100337.75;5040492;28;19935;-39
2022/01/05 07:30:38;;;;;;;;;;;;;;;17.15;50.85;100334.25;5038145;28;20444;-39
2022/01/05 07:33:04;;;;;;;;;;;;;;;17.12;51.58;100333.72;5044262;28;20261;-40
2022/01/05 07:35:31;;;;;;;;;;;;;;;17.11;51.46;100338.25;5038233;28;19935;-39
2022/01/05 07:37:57;;;;;;;;;;;;;;;17.10;50.94;100341.09;5041708;28;19929;-39
2022/01/05 07:40:24;;;;;;;;;;;;;;;17.10;51.52;100346.44;5039842;28;19924;-40
2022/01/05 07:42:50;;;;;;;;;;;;;;;17.11;51.27;100353.47;5036657;28;19979;-39
2022/01/05 07:45:17;;;;;;;;;;;;;;;17.08;50.99;100341.22;5044122;28;20011;-40
2022/01/05 07:47:43;;;;;;;;;;;;;;;17.07;51.11;100352.94;5044022;28;19924;-40
2022/01/05 07:50:14;;;;;;;;;;;;;;;17.07;50.91;100363.66;5043158;28;19935;-40
2022/01/05 07:52:47;;;;;;;;;;;;;;;17.07;51.11;100357.47;5037656;28;20351;-39
2022/01/05 07:55:14;;;;;;;;;;;;;;;17.06;51.44;100356.63;5039417;28;19929;-40
2022/01/05 07:57:40;;;;;;;;;;;;;;;17.05;51.45;100372.88;5039838;28;19933;-39
2022/01/05 08:00:07;;;;;;;;;;;;;;;17.04;50.74;100388.06;5040618;28;20754;-39
2022/01/05 08:02:34;;;;;;;;;;;;;;;17.03;51.22;100378.38;5041000;28;19968;-40
2022/01/05 08:05:00;;;;;;;;;;;;;;;17.01;50.95;100381.22;5042489;28;19926;-40
2022/01/05 08:07:27;;;;;;;;;;;;;;;17.02;51.29;100395.44;5044682;28;19931;-40
2022/01/05 08:09:53;;;;;;;;;;;;;;;17.01;51.29;100407.16;5041895;28;19931;-40
2022/01/05 08:12:20;;;;;;;;;;;;;;;17.00;51.28;100400.09;5039741;28;20550;-39
2022/01/05 08:14:46;;;;;;;;;;;;;;;16.99;50.49;100401.09;5038264;28;20028;-40
2022/01/05 08:17:12;;;;;;;;;;;;;;;16.99;51.09;100401.09;5038939;28;19933;-39
2022/01/05 08:19:39;;;;;;;;;;;;;;;16.97;50.89;100398.59;5040838;28;19947;-40
2022/01/05 08:22:05;;;;;;;;;;;;;;;16.97;51.41;100417.31;5039920;28;19925;-39
2022/01/05 08:24:31;;;;;;;;;;;;;;;16.95;51.48;100395.22;5041264;28;20365;-39
2022/01/05 08:26:59;;;;;;;;;;;;;;;16.94;51.45;100388.19;5043061;28;19925;-39
2022/01/05 08:29:25;;;;;;;;;;;;;;;16.92;51.17;100400.88;5037930;28;19925;-39
2022/01/05 08:31:51;;;;;;;;;;;;;;;16.93;50.59;100399.06;5039525;28;20316;-39
2022/01/05 08:34:18;;;;;;;;;;;;;;;16.93;50.70;100391.03;5040448;28;20319;-39
2022/01/05 08:36:44;;;;;;;;;;;;;;;16.91;50.65;100387.66;5040857;28;19925;-39
2022/01/05 08:39:11;;;;;;;;;;;;;;;16.90;51.45;100386.81;5038078;28;20015;-39
2022/01/05 08:41:37;;;;;;;;;;;;;;;16.90;50.81;100392.19;5038397;28;19929;-39
2022/01/05 08:44:04;;;;;;;;;;;;;;;16.90;51.44;100386.00;5037727;28;19929;-39
2022/01/05 08:46:30;;;;;;;;;;;;;;;16.89;51.29;100397.69;5040585;28;19968;-39
2022/01/05 08:48:57;;;;;;;;;;;;;;;16.89;50.61;100400.38;5036556;28;19933;-39
2022/01/05 08:51:23;;;;;;;;;;;;;;;16.89;51.02;100411.91;5041033;28;20386;-40
2022/01/05 08:53:49;;;;;;;;;;;;;;;16.89;50.82;100413.75;5036142;28;19929;-40
2022/01/05 08:56:16;;;;;;;;;;;;;;;16.88;51.08;100407.53;5044110;28;19976;-41
2022/01/05 08:58:42;;;;;;;;;;;;;;;16.87;50.74;100424.59;5036889;28;19925;-40
2022/01/05 09:01:11;;;;;;;;;;;;;;;16.86;51.08;100419.41;5036922;28;19925;-40
2022/01/05 09:03:37;;;;;;;;;;;;;;;16.86;51.28;100417.56;5036551;28;19929;-40
2022/01/05 09:06:06;;;;;;;;;;;;;;;16.85;51.19;100425.78;5036831;28;19936;-40
2022/01/05 09:08:33;;;;;;;;;;;;;;;16.84;51.22;100430.25;5040227;28;19924;-40
2022/01/05 09:11:00;;;;;;;;;;;;;;;16.85;51.69;100433.81;5037554;28;19936;-40
2022/01/05 09:13:26;;;;;;;;;;;;;;;16.85;50.94;100431.13;5038543;28;19932;-40
2022/01/05 09:15:52;;;;;;;;;;;;;;;16.84;51.39;100432.94;5039322;28;19933;-40
2022/01/05 09:18:19;;;;;;;;;;;;;;;16.85;51.63;100449.88;5040683;28;20332;-40
2022/01/05 09:20:45;;;;;;;;;;;;;;;16.83;50.76;100433.94;5043793;28;19924;-40
2022/01/05 09:23:12;;;;;;;;;;;;;;;16.83;51.32;100439.28;5035328;28;19925;-40
2022/01/05 09:25:39;;;;;;;;;;;;;;;16.84;51.46;100446.31;5040593;28;19925;-40
2022/01/05 09:28:05;;;;;;;;;;;;;;;16.83;50.95;100441.97;5038913;28;19940;-40
2022/01/05 09:30:32;;;;;;;;;;;;;;;16.82;51.08;100434.94;5036760;28;19929;-40
2022/01/05 09:32:58;;;;;;;;;;;;;;;16.83;51.72;100446.50;5054402;28;19932;-40
2022/01/05 09:35:26;;;;;;;;;;;;;;;16.82;51.10;100442.13;5037288;28;20395;-40
2022/01/05 09:38:05;;;;;;;;;;;;;;;16.82;51.71;100460.88;5041478;28;19929;-40
2022/01/05 09:43:17;;;;;;;;;;;;;;;16.81;51.66;100462.72;5037927;28;19925;-39
2022/01/05 09:45:59;;;;;;;;;;;;;;;16.81;50.59;100469.91;5034755;28;19932;-40
2022/01/05 09:48:39;;;;;;;;;;;;;;;16.80;51.61;100471.72;5042532;28;19936;-40
2022/01/05 09:51:10;;;;;;;;;;;;;;;16.80;51.25;100485.09;5034841;28;19933;-40
2022/01/05 09:53:39;;;;;;;;;;;;;;;16.81;50.95;100480.63;5039486;28;19932;-40
2022/01/05 09:56:25;;;;;;;;;;;;;;;16.81;50.77;100502.88;5037439;28;19929;-40
2022/01/05 09:58:52;;;;;;;;;;;;;;;16.82;51.55;100514.41;5038622;28;20052;-40
2022/01/05 10:01:18;;;;;;;;;;;;;;;16.82;51.43;100509.88;5038374;28;20051;-40
2022/01/05 10:03:45;;;;;;;;;;;;;;;16.82;51.67;100514.41;5038808;28;19928;-40
2022/01/05 10:06:12;;;;;;;;;;;;;;;16.81;51.65;100518.09;5037377;28;19983;-40
2022/01/05 10:08:38;;;;;;;;;;;;;;;16.83;50.96;100516.09;5037913;28;20253;-40
2022/01/05 10:11:08;;;;;;;;;;;;;;;16.82;51.34;100523.28;5037114;28;20016;-40
2022/01/05 10:13:35;;;;;;;;;;;;;;;16.81;51.85;100521.59;5030634;28;20601;-40
2022/01/05 10:16:01;;;;;;;;;;;;;;;16.82;51.59;100520.59;5033128;28;19929;-40
2022/01/05 10:18:37;;;;;;;;;;;;;;;16.81;51.39;100528.78;5036454;28;19980;-40
2022/01/05 10:21:05;;;;;;;;;;;;;;;16.82;51.78;100528.63;5037375;28;20011;-40
2022/01/05 10:23:45;;;;;;;;;;;;;;;16.81;51.47;100532.31;5044033;28;19925;-40
2022/01/05 10:26:18;;;;;;;;;;;;;;;16.82;51.38;100535.81;5047318;28;19925;-40
2022/01/05 10:28:47;;;;;;;;;;;;;;;16.81;51.18;100528.78;5040647;28;20427;-40
2022/01/05 10:31:18;;;;;;;;;;;;;;;16.81;52.21;100534.97;5044786;28;20324;-40
2022/01/05 10:33:45;;;;;;;;;;;;;;;16.82;51.47;100535.81;5043211;28;19924;-40
2022/01/05 10:36:11;;;;;;;;;;;;;;;16.81;51.90;100543.00;5043812;28;19924;-40
2022/01/05 10:38:38;;;;;;;;;;;;;;;16.82;52.23;100541.16;5040554;28;20385;-40
2022/01/05 10:41:14;;;;;;;;;;;;;;;16.80;51.33;100559.19;5047450;28;20269;-40
2022/01/05 10:43:59;;;;;;;;;;;;;;;16.81;51.64;100558.22;5039872;28;19963;-40
2022/01/05 10:46:33;;;;;;;;;;;;;;;16.80;51.43;100570.75;5043924;28;19943;-40
2022/01/05 10:49:00;;;;;;;;;;;;;;;16.81;51.66;100574.28;5040461;28;19939;-40
2022/01/05 10:51:31;;;;;;;;;;;;;;;16.83;51.32;100570.44;5042336;28;20008;-40
2022/01/05 10:54:10;;;;;;;;;;;;;;;16.89;51.49;100564.50;5041735;28;20401;-40
2022/01/05 10:56:36;;;;;;;;;;;;;;;16.96;51.42;100578.94;5040510;28;19928;-40
2022/01/05 10:59:03;;;;;;;;;;;;;;;17.05;51.87;100579.88;5040009;28;20011;-40
2022/01/05 11:01:30;;;;;;;;;;;;;;;17.12;51.30;100574.72;5041268;28;19929;-40
2022/01/05 11:03:57;;;;;;;;;;;;;;;17.20;51.43;100580.16;5042292;28;20016;-40
2022/01/05 11:06:23;;;;;;;;;;;;;;;17.28;51.24;100582.91;5041014;28;19925;-40
2022/01/05 11:08:50;;;;;;;;;;;;;;;17.35;50.96;100581.28;5037628;28;20052;-40
2022/01/05 11:11:31;;;;;;;;;;;;;;;17.41;50.92;100603.94;5035605;28;19929;-40
2022/01/05 11:13:58;;;;;;;;;;;;;;;17.45;50.53;100611.53;5031742;28;20625;-40
2022/01/05 11:16:28;;;;;;;;;;;;;;;17.49;50.34;100593.28;5038332;28;19935;-40
2022/01/05 11:19:21;;;;;;;;;;;;;;;17.52;50.40;100620.59;5032570;28;19956;-40
2022/01/05 11:22:04;;;;;;;;;;;;;;;17.55;50.13;100616.78;5031854;28;20015;-39
2022/01/05 11:24:43;;;;;;;;;;;;;;;17.55;50.46;100623.97;5029905;28;20210;-40
2022/01/05 11:27:11;;;;;;;;;;;;;;;17.56;50.25;100637.19;5036050;28;19933;-40
2022/01/05 11:29:39;;;;;;;;;;;;;;;17.56;50.02;100628.31;5032914;28;19976;-39
2022/01/05 11:32:07;;;;;;;;;;;;;;;17.56;50.08;100631.84;5031542;28;19940;-38
2022/01/05 11:34:34;;;;;;;;;;;;;;;17.56;50.08;100637.19;5033273;28;19925;-39
2022/01/05 11:37:03;;;;;;;;;;;;;;;17.56;50.01;100633.69;5035333;28;19994;-43
2022/01/05 11:39:31;;;;;;;;;;;;;;;17.53;50.08;100637.53;5030985;28;19925;-39
2022/01/05 11:42:01;;;;;;;;;;;;;;;17.52;49.75;100642.03;5033223;28;19929;-39
2022/01/05 11:44:28;;;;;;;;;;;;;;;17.54;50.13;100646.41;5030975;28;20360;-39
2022/01/05 11:46:55;;;;;;;;;;;;;;;17.52;50.21;100638.50;5033984;28;19933;-39
2022/01/05 11:49:26;;;;;;;;;;;;;;;17.51;50.26;100651.06;5041358;28;20019;-39
2022/01/05 11:51:55;;;;;;;;;;;;;;;17.50;50.08;100640.53;5035009;28;19925;-39
2022/01/05 11:54:23;;;;;;;;;;;;;;;17.48;50.22;100637.97;5035858;28;19967;-39
2022/01/05 11:56:52;;;;;;;;;;;;;;;17.49;50.39;100639.69;5038096;28;19979;-39
2022/01/05 11:59:20;;;;;;;;;;;;;;;17.48;50.38;100655.91;5038189;28;20567;-39
2022/01/05 12:02:19;;;;;;;;;;;;;;;17.47;50.96;100654.22;5034471;28;19929;-39
2022/01/05 12:04:51;;;;;;;;;;;;;;;17.46;50.42;100665.94;5034390;28;20024;-39
2022/01/05 12:07:33;;;;;;;;;;;;;;;17.45;50.01;100667.78;5037109;28;19925;-39
2022/01/05 12:09:59;;;;;;;;;;;;;;;17.44;50.40;100673.28;5036531;28;19983;-39
2022/01/05 12:12:29;;;;;;;;;;;;;;;17.42;50.54;100683.31;5037839;28;20280;-39
2022/01/05 12:14:56;;;;;;;;;;;;;;;17.41;50.76;100689.69;5036413;28;19972;-39
2022/01/05 12:17:24;;;;;;;;;;;;;;;17.38;50.57;100685.47;5041472;28;19924;-39
2022/01/05 12:19:50;;;;;;;;;;;;;;;17.37;50.62;100699.88;5043869;28;20015;-39
2022/01/05 12:22:22;;;;;;;;;;;;;;;17.36;50.62;100683.91;5041345;28;20012;-39
2022/01/05 12:24:59;;;;;;;;;;;;;;;17.35;50.80;100696.47;5035481;28;19925;-39
2022/01/05 12:27:27;;;;;;;;;;;;;;;17.33;50.88;100695.81;5035619;28;20018;-39
2022/01/05 12:29:54;;;;;;;;;;;;;;;17.32;51.12;100688.75;5036838;28;19972;-39
2022/01/05 12:32:29;;;;;;;;;;;;;;;17.31;51.04;100691.59;5038795;28;19925;-39
2022/01/05 12:34:58;;;;;;;;;;;;;;;17.30;51.26;100701.47;5041667;28;20054;-39
2022/01/05 12:37:40;;;;;;;;;;;;;;;17.31;51.44;100696.94;5043189;28;20015;-39
2022/01/05 12:40:22;;;;;;;;;;;;;;;17.29;50.97;100713.19;5040626;28;19932;-39